Time,TemperatureF,DewpointF,PressureIn,WindDirection,WindDirectionDegrees,WindSpeedMPH,WindSpeedGustMPH,Humidity,HourlyPrecipIn,Conditions,Clouds,dailyrainin,SoftwareType,DateUTC
2015-03-06 00:00:00,70.0,69.1,30.17,SSW,202,0.0,1.0,97,0.00,,SKC,0.00,VWS V15.00,2015-03-06 05:00:00,
2015-03-06 00:05:00,70.0,69.1,30.17,SSW,202,2.0,3.0,97,0.00,,SKC,0.00,VWS V15.00,2015-03-06 05:05:00,
2015-03-06 00:10:00,71.0,70.1,30.17,SE,135,1.0,4.0,97,0.00,,SKC,0.00,VWS V15.00,2015-03-06 05:10:00,
2015-03-06 00:15:00,71.0,70.1,30.17,WSW,247,0.0,3.0,97,0.00,,SKC,0.00,VWS V15.00,2015-03-06 05:15:00,
2015-03-06 00:20:00,71.0,70.1,30.17,SW,225,3.0,3.0,97,0.00,,SKC,0.00,VWS V15.00,2015-03-06 05:20:00,
2015-03-06 00:24:00,71.0,70.1,30.17,SW,225,0.0,4.0,97,0.00,,SKC,0.00,VWS V15.00,2015-03-06 05:24:00,
2015-03-06 00:29:00,71.0,70.1,30.16,South,180,2.0,2.0,97,0.00,,SKC,0.00,VWS V15.00,2015-03-06 05:29:00,
2015-03-06 00:34:00,71.0,70.1,30.16,SSE,157,0.0,0.0,97,0.00,,SKC,0.00,VWS V15.00,2015-03-06 05:34:00,
2015-03-06 00:39:00,71.0,70.1,30.17,SSW,202,0.0,3.0,97,0.00,,SKC,0.00,VWS V15.00,2015-03-06 05:39:00,
2015-03-06 00:44:00,71.0,70.1,30.16,SW,225,1.0,4.0,97,0.00,,SKC,0.00,VWS V15.00,2015-03-06 05:44:00,
2015-03-06 00:49:00,70.0,69.4,30.16,SW,225,2.0,3.0,98,0.00,,SKC,0.00,VWS V15.00,2015-03-06 05:49:00,
2015-03-06 00:54:00,70.0,69.4,30.16,SW,225,1.0,4.0,98,0.00,,SKC,0.00,VWS V15.00,2015-03-06 05:54:00,
2015-03-06 00:59:00,70.0,69.4,30.16,SSW,202,2.0,2.0,98,0.00,,SKC,0.00,VWS V15.00,2015-03-06 05:59:00,
2015-03-06 01:04:00,70.0,69.4,30.16,SW,225,3.0,3.0,98,0.00,,SKC,0.00,VWS V15.00,2015-03-06 06:04:00,
2015-03-06 01:09:00,70.0,69.4,30.15,South,180,0.0,2.0,98,0.00,,SKC,0.00,VWS V15.00,2015-03-06 06:09:00,
2015-03-06 01:14:00,70.0,69.4,30.16,WSW,247,3.0,3.0,98,0.00,,SKC,0.00,VWS V15.00,2015-03-06 06:14:00,
2015-03-06 01:19:00,70.0,69.4,30.16,SW,225,3.0,3.0,98,0.00,,SKC,0.00,VWS V15.00,2015-03-06 06:19:00,
2015-03-06 01:24:00,70.0,69.4,30.15,SW,225,3.0,3.0,98,0.00,,SKC,0.00,VWS V15.00,2015-03-06 06:24:00,
2015-03-06 01:29:00,70.0,69.4,30.15,South,180,0.0,0.0,98,0.00,,SKC,0.00,VWS V15.00,2015-03-06 06:29:00,
2015-03-06 01:34:00,69.0,68.4,30.15,South,180,0.0,0.0,98,0.00,,SKC,0.00,VWS V15.00,2015-03-06 06:34:00,
2015-03-06 01:39:00,69.0,68.4,30.15,SSW,202,0.0,0.0,98,0.00,,SKC,0.00,VWS V15.00,2015-03-06 06:39:00,
2015-03-06 01:44:00,69.0,68.4,30.15,SW,225,4.0,4.0,98,0.00,,SKC,0.00,VWS V15.00,2015-03-06 06:44:00,
2015-03-06 01:49:00,69.0,68.4,30.15,WSW,247,2.0,4.0,98,0.00,,SKC,0.00,VWS V15.00,2015-03-06 06:49:00,
2015-03-06 01:54:00,69.0,68.4,30.15,WSW,247,2.0,3.0,98,0.00,,SKC,0.00,VWS V15.00,2015-03-06 06:54:00,
2015-03-06 01:59:00,69.0,68.4,30.15,WSW,247,3.0,4.0,98,0.00,,SKC,0.00,VWS V15.00,2015-03-06 06:59:00,
2015-03-06 02:04:00,69.0,68.4,30.15,WNW,292,6.0,6.0,98,0.00,,SKC,0.00,VWS V15.00,2015-03-06 07:04:00,
2015-03-06 02:09:00,69.0,68.4,30.15,West,270,3.0,4.0,98,0.00,,SKC,0.00,VWS V15.00,2015-03-06 07:09:00,
2015-03-06 02:14:00,69.0,68.4,30.15,West,270,1.0,3.0,98,0.00,,SKC,0.00,VWS V15.00,2015-03-06 07:14:00,
2015-03-06 02:19:00,69.0,68.4,30.15,West,270,2.0,3.0,98,0.00,,SKC,0.00,VWS V15.00,2015-03-06 07:19:00,
2015-03-06 02:24:00,69.0,68.4,30.15,SSW,202,4.0,5.0,98,0.00,,SKC,0.00,VWS V15.00,2015-03-06 07:24:00,
2015-03-06 02:29:00,69.0,68.7,30.15,West,270,3.0,3.0,99,0.00,,SKC,0.00,VWS V15.00,2015-03-06 07:29:00,
2015-03-06 02:34:00,69.0,68.7,30.15,West,270,4.0,5.0,99,0.00,,SKC,0.00,VWS V15.00,2015-03-06 07:34:00,
2015-03-06 02:39:00,69.0,68.7,30.14,WSW,247,4.0,4.0,99,0.00,,SKC,0.00,VWS V15.00,2015-03-06 07:39:00,
2015-03-06 02:44:00,69.0,68.7,30.14,WSW,247,5.0,5.0,99,0.00,,SKC,0.00,VWS V15.00,2015-03-06 07:44:00,
2015-03-06 02:49:00,69.0,68.7,30.14,WSW,247,3.0,3.0,99,0.00,,SKC,0.00,VWS V15.00,2015-03-06 07:49:00,
2015-03-06 02:54:00,69.0,68.7,30.14,SSW,202,3.0,4.0,99,0.00,,SKC,0.00,VWS V15.00,2015-03-06 07:54:00,
2015-03-06 02:59:00,69.0,68.7,30.15,SW,225,2.0,3.0,99,0.00,,SKC,0.00,VWS V15.00,2015-03-06 07:59:00,
2015-03-06 03:04:00,69.0,68.7,30.14,WSW,247,3.0,3.0,99,0.00,,SKC,0.00,VWS V15.00,2015-03-06 08:04:00,
2015-03-06 03:09:00,69.0,68.7,30.14,WSW,247,5.0,5.0,99,0.00,,SKC,0.00,VWS V15.00,2015-03-06 08:09:00,
2015-03-06 03:14:00,69.0,68.7,30.14,West,270,5.0,5.0,99,0.00,,SKC,0.00,VWS V15.00,2015-03-06 08:14:00,
2015-03-06 03:19:00,69.0,68.7,30.14,WNW,292,2.0,4.0,99,0.00,,SKC,0.00,VWS V15.00,2015-03-06 08:19:00,
2015-03-06 03:24:00,69.0,68.7,30.14,WSW,247,4.0,4.0,99,0.00,,SKC,0.00,VWS V15.00,2015-03-06 08:24:00,
2015-03-06 03:29:00,69.0,68.7,30.14,WSW,247,5.0,5.0,99,0.00,,SKC,0.00,VWS V15.00,2015-03-06 08:29:00,
2015-03-06 03:34:00,69.0,68.7,30.14,WSW,247,2.0,2.0,99,0.00,,SKC,0.00,VWS V15.00,2015-03-06 08:34:00,
2015-03-06 03:39:00,69.0,68.7,30.14,SW,225,0.0,2.0,99,0.00,,SKC,0.00,VWS V15.00,2015-03-06 08:39:00,
2015-03-06 03:44:00,69.0,68.7,30.14,WSW,247,0.0,1.0,99,0.00,,SKC,0.00,VWS V15.00,2015-03-06 08:44:00,
2015-03-06 03:49:00,69.0,68.7,30.14,SW,225,2.0,2.0,99,0.00,,SKC,0.00,VWS V15.00,2015-03-06 08:49:00,
2015-03-06 03:54:00,69.0,68.7,30.14,SW,225,0.0,0.0,99,0.00,,SKC,0.00,VWS V15.00,2015-03-06 08:54:00,
2015-03-06 03:59:00,69.0,68.4,30.14,WSW,247,2.0,2.0,98,0.00,,SKC,0.00,VWS V15.00,2015-03-06 08:59:00,
2015-03-06 04:04:00,69.0,68.4,30.14,WSW,247,0.0,0.0,98,0.00,,SKC,0.00,VWS V15.00,2015-03-06 09:04:00,
2015-03-06 04:09:00,69.0,68.4,30.14,WSW,247,4.0,4.0,98,0.00,,SKC,0.00,VWS V15.00,2015-03-06 09:09:00,
2015-03-06 04:14:00,69.0,68.4,30.14,West,270,5.0,5.0,98,0.00,,SKC,0.00,VWS V15.00,2015-03-06 09:14:00,
2015-03-06 04:19:00,69.0,68.4,30.14,WSW,247,2.0,3.0,98,0.00,,SKC,0.00,VWS V15.00,2015-03-06 09:19:00,
2015-03-06 04:24:00,69.0,68.4,30.14,West,270,3.0,4.0,98,0.00,,SKC,0.00,VWS V15.00,2015-03-06 09:24:00,
2015-03-06 04:29:00,69.0,68.4,30.14,WNW,292,3.0,3.0,98,0.00,,SKC,0.00,VWS V15.00,2015-03-06 09:29:00,
2015-03-06 04:34:00,69.0,68.4,30.14,WSW,247,4.0,4.0,98,0.00,,SKC,0.00,VWS V15.00,2015-03-06 09:34:00,
2015-03-06 04:39:00,69.0,68.4,30.14,West,270,0.0,0.0,98,0.00,,SKC,0.00,VWS V15.00,2015-03-06 09:39:00,
2015-03-06 04:44:00,69.0,68.4,30.15,West,270,5.0,5.0,98,0.00,,SKC,0.00,VWS V15.00,2015-03-06 09:44:00,
2015-03-06 04:49:00,69.0,68.4,30.14,West,270,2.0,3.0,98,0.00,,SKC,0.00,VWS V15.00,2015-03-06 09:49:00,
2015-03-06 04:54:00,69.0,68.4,30.14,WNW,292,5.0,5.0,98,0.00,,SKC,0.00,VWS V15.00,2015-03-06 09:54:00,
2015-03-06 04:59:00,69.0,68.7,30.14,West,270,4.0,4.0,99,0.00,,SKC,0.00,VWS V15.00,2015-03-06 09:59:00,
2015-03-06 05:04:00,69.0,68.7,30.15,West,270,4.0,4.0,99,0.00,,SKC,0.00,VWS V15.00,2015-03-06 10:04:00,
2015-03-06 05:09:00,69.0,68.7,30.16,West,270,4.0,4.0,99,0.00,,SKC,0.00,VWS V15.00,2015-03-06 10:09:00,
2015-03-06 05:14:00,69.0,68.7,30.16,WNW,292,4.0,4.0,99,0.00,,SKC,0.00,VWS V15.00,2015-03-06 10:14:00,
2015-03-06 05:19:00,69.0,68.7,30.16,WNW,292,5.0,5.0,99,0.00,,SKC,0.00,VWS V15.00,2015-03-06 10:19:00,
2015-03-06 05:24:00,69.0,68.7,30.16,WNW,292,5.0,6.0,99,0.00,,SKC,0.00,VWS V15.00,2015-03-06 10:24:00,
2015-03-06 05:29:00,69.0,68.7,30.16,NW,315,1.0,2.0,99,0.00,,SKC,0.00,VWS V15.00,2015-03-06 10:29:00,
2015-03-06 05:34:00,69.0,68.7,30.16,NNW,337,1.0,5.0,99,0.00,,SKC,0.00,VWS V15.00,2015-03-06 10:34:00,
2015-03-06 05:39:00,69.0,68.7,30.16,NW,315,2.0,3.0,99,0.00,,SKC,0.00,VWS V15.00,2015-03-06 10:39:00,
2015-03-06 05:44:00,69.0,68.7,30.17,NNW,337,4.0,4.0,99,0.00,,SKC,0.00,VWS V15.00,2015-03-06 10:44:00,
2015-03-06 05:49:00,69.0,68.7,30.17,WNW,292,5.0,7.0,99,0.00,,SKC,0.00,VWS V15.00,2015-03-06 10:49:00,
2015-03-06 05:54:00,68.0,67.7,30.17,WNW,292,3.0,6.0,99,0.00,,SKC,0.00,VWS V15.00,2015-03-06 10:54:00,
2015-03-06 05:59:00,68.0,67.7,30.17,West,270,0.0,2.0,99,0.00,,SKC,0.00,VWS V15.00,2015-03-06 10:59:00,
2015-03-06 06:04:00,68.0,67.7,30.17,WNW,292,0.0,2.0,99,0.00,,SKC,0.00,VWS V15.00,2015-03-06 11:04:00,
2015-03-06 06:09:00,68.0,67.7,30.17,NNW,337,2.0,3.0,99,0.00,,SKC,0.00,VWS V15.00,2015-03-06 11:09:00,
2015-03-06 06:14:00,68.0,67.7,30.17,NNW,337,0.0,1.0,99,0.00,,SKC,0.00,VWS V15.00,2015-03-06 11:14:00,
2015-03-06 06:19:00,68.0,67.7,30.18,NNW,337,0.0,2.0,99,0.00,,SKC,0.00,VWS V15.00,2015-03-06 11:19:00,